createdAt,value
2019-05-06T00:00:34.496Z,65.30
2019-05-06T00:03:05.144Z,65.40
2019-05-06T00:05:35.681Z,65.40
2019-05-06T00:08:06.075Z,65.40
2019-05-06T00:10:36.847Z,65.40
2019-05-06T00:13:07.258Z,65.60
2019-05-06T00:15:39.200Z,65.80
2019-05-06T00:18:11.069Z,65.50
2019-05-06T00:20:43.719Z,65.50
2019-05-06T00:23:18.150Z,65.50
2019-05-06T00:25:53.552Z,65.40
2019-05-06T00:28:25.803Z,65.40
2019-05-06T00:31:12.204Z,65.50
2019-05-06T00:33:34.101Z,65.60
2019-05-06T00:36:04.861Z,65.70
2019-05-06T00:38:36.401Z,65.60
2019-05-06T00:41:25.156Z,65.50
2019-05-06T00:43:57.203Z,65.60
2019-05-06T00:46:27.569Z,65.90
2019-05-06T00:48:57.971Z,66.00
2019-05-06T00:51:28.445Z,66.40
2019-05-06T00:54:04.002Z,66.20
2019-05-06T00:56:34.637Z,66.40
2019-05-06T00:59:05.056Z,66.40
2019-05-06T01:01:36.981Z,66.50
2019-05-06T01:04:07.449Z,66.70
2019-05-06T01:06:37.834Z,66.70
2019-05-06T01:09:10.811Z,66.70
2019-05-06T01:11:44.904Z,66.70
2019-05-06T01:14:17.141Z,66.70
2019-05-06T01:16:47.520Z,66.80
2019-05-06T01:19:17.928Z,67.00
2019-05-06T01:21:48.317Z,67.00
2019-05-06T01:24:18.909Z,67.10
2019-05-06T01:26:50.739Z,66.90
2019-05-06T01:29:21.246Z,67.10
2019-05-06T01:31:54.230Z,67.20
2019-05-06T01:34:25.377Z,67.30
2019-05-06T01:36:55.754Z,67.20
2019-05-06T01:39:27.814Z,67.00
2019-05-06T01:42:08.790Z,67.10
2019-05-06T01:44:39.292Z,67.10
2019-05-06T01:47:11.962Z,66.90
2019-05-06T01:49:45.223Z,66.90
2019-05-06T01:52:15.591Z,66.90
2019-05-06T01:54:46.003Z,67.00
2019-05-06T01:57:16.362Z,66.70
2019-05-06T01:59:46.903Z,66.70
2019-05-06T02:02:17.501Z,66.70
2019-05-06T02:04:47.966Z,66.80
2019-05-06T02:07:18.355Z,66.70
2019-05-06T02:09:48.752Z,66.70
2019-05-06T02:12:19.140Z,66.60
2019-05-06T02:14:49.708Z,66.50
2019-05-06T02:17:20.123Z,66.60
2019-05-06T02:19:50.527Z,66.30
2019-05-06T02:22:24.113Z,66.40
2019-05-06T02:24:56.261Z,66.20
2019-05-06T02:27:27.011Z,66.20
2019-05-06T02:29:59.101Z,66.20
2019-05-06T02:32:35.985Z,66.20
2019-05-06T02:35:08.300Z,66.30
2019-05-06T02:37:40.291Z,66.20
2019-05-06T02:40:24.878Z,66.00
2019-05-06T02:42:55.044Z,65.90
2019-05-06T02:45:26.047Z,66.00
2019-05-06T02:47:58.055Z,65.90
2019-05-06T02:50:45.327Z,66.00
2019-05-06T02:53:17.363Z,66.00
2019-05-06T02:55:47.845Z,66.00
2019-05-06T02:58:19.780Z,66.10
2019-05-06T03:00:49.919Z,65.90
2019-05-06T03:03:23.278Z,66.00
2019-05-06T03:05:53.481Z,65.70
2019-05-06T03:08:25.552Z,65.90
2019-05-06T03:10:56.020Z,66.60
2019-05-06T03:13:27.006Z,65.90
2019-05-06T03:15:58.891Z,65.90
2019-05-06T03:18:29.256Z,65.90
2019-05-06T03:21:03.674Z,65.70
2019-05-06T03:23:44.203Z,65.70
2019-05-06T03:26:14.691Z,65.70
2019-05-06T03:28:45.108Z,66.20
2019-05-06T03:31:17.818Z,65.60
2019-05-06T03:34:05.910Z,65.40
2019-05-06T03:36:27.172Z,65.50
2019-05-06T03:38:53.606Z,65.60
2019-05-06T03:41:26.744Z,65.60
2019-05-06T03:43:56.670Z,65.30
2019-05-06T03:46:45.043Z,65.40
2019-05-06T03:49:15.423Z,65.50
2019-05-06T03:51:45.830Z,65.50
2019-05-06T03:54:17.881Z,65.30
2019-05-06T03:56:49.189Z,65.40
2019-05-06T03:59:23.341Z,65.30
2019-05-06T04:01:54.767Z,65.30
2019-05-06T04:04:25.369Z,65.10
2019-05-06T04:06:56.692Z,65.20
2019-05-06T04:09:28.552Z,65.10
2019-05-06T04:11:59.353Z,65.00
2019-05-06T04:14:34.045Z,65.00
2019-05-06T04:17:13.086Z,65.10
2019-05-06T04:19:45.461Z,64.80
2019-05-06T04:22:23.369Z,64.80
2019-05-06T04:24:54.141Z,64.70
2019-05-06T04:27:46.329Z,64.50
2019-05-06T04:30:17.747Z,64.20
2019-05-06T04:32:48.256Z,64.50
2019-05-06T04:35:22.755Z,67.90
2019-05-06T04:37:54.634Z,64.10
2019-05-06T04:40:25.254Z,63.90
2019-05-06T04:42:56.041Z,63.80
2019-05-06T04:45:26.502Z,63.80
2019-05-06T04:47:56.931Z,62.90
2019-05-06T04:50:27.345Z,63.40
2019-05-06T04:52:59.316Z,63.10
2019-05-06T04:55:30.029Z,63.10
2019-05-06T04:58:04.055Z,63.00
2019-05-06T05:00:36.817Z,63.00
2019-05-06T05:03:07.210Z,62.60
2019-05-06T05:05:37.741Z,62.60
2019-05-06T05:08:09.075Z,62.60
2019-05-06T05:10:43.162Z,63.70
2019-05-06T05:13:18.979Z,62.20
2019-05-06T05:16:02.136Z,61.50
2019-05-06T05:18:36.321Z,61.40
2019-05-06T05:21:06.993Z,60.90
2019-05-06T05:23:39.084Z,60.60
2019-05-06T05:26:11.983Z,60.40
2019-05-06T05:28:43.389Z,59.50
2019-05-06T05:31:13.827Z,59.10
2019-05-06T05:33:45.685Z,58.60
2019-05-06T05:36:16.258Z,58.60
2019-05-06T05:38:46.730Z,57.20
2019-05-06T05:41:17.236Z,56.80
2019-05-06T05:43:55.049Z,56.60
2019-05-06T05:46:25.610Z,55.80
2019-05-06T05:49:02.748Z,55.60
2019-05-06T05:51:32.650Z,54.60
2019-05-06T05:54:04.513Z,54.30
2019-05-06T05:56:35.060Z,53.50
2019-05-06T05:59:05.839Z,53.10
2019-05-06T06:01:36.296Z,52.80
2019-05-06T06:04:08.208Z,52.30
2019-05-06T06:06:38.725Z,51.80
2019-05-06T06:09:09.124Z,51.60
2019-05-06T06:11:42.113Z,51.30
2019-05-06T06:14:33.225Z,51.00
2019-05-06T06:17:05.358Z,50.60
2019-05-06T06:19:40.449Z,50.00
2019-05-06T06:22:17.032Z,50.00
2019-05-06T06:24:47.447Z,49.20
2019-05-06T06:27:18.429Z,47.50
2019-05-06T06:29:48.936Z,46.60
2019-05-06T06:32:22.854Z,46.60
2019-05-06T06:35:07.477Z,45.90
2019-05-06T06:37:38.839Z,42.40
2019-05-06T06:40:12.991Z,41.20
2019-05-06T06:42:42.871Z,40.30
2019-05-06T06:45:15.073Z,40.50
2019-05-06T06:47:45.557Z,40.30
2019-05-06T06:50:16.106Z,39.40
2019-05-06T06:52:46.607Z,39.70
2019-05-06T06:55:19.214Z,37.50
2019-05-06T06:57:52.777Z,35.10
2019-05-06T07:03:12.260Z,28.00
2019-05-06T07:05:47.491Z,29.00
2019-05-06T07:08:32.150Z,29.90
2019-05-06T07:10:52.414Z,31.00
2019-05-06T07:13:23.273Z,32.80
2019-05-06T07:15:55.277Z,34.90
2019-05-06T07:18:25.677Z,36.60
2019-05-06T07:20:59.136Z,38.00
2019-05-06T07:23:32.691Z,39.60
2019-05-06T07:26:03.328Z,40.80
2019-05-06T07:28:34.893Z,41.80
2019-05-06T07:31:18.721Z,43.30
2019-05-06T07:33:37.415Z,43.60
2019-05-06T07:36:07.781Z,45.30
2019-05-06T07:38:40.006Z,44.90
2019-05-06T07:41:14.839Z,45.50
2019-05-06T07:43:53.021Z,46.00
2019-05-06T07:46:27.952Z,47.90
2019-05-06T07:48:58.376Z,52.90
2019-05-06T07:51:28.746Z,51.20
2019-05-06T07:53:59.156Z,49.70
2019-05-06T07:56:29.546Z,50.10
2019-05-06T07:59:09.244Z,49.60
2019-05-06T08:01:43.483Z,51.20
2019-05-06T08:04:12.728Z,49.90
2019-05-06T08:06:43.238Z,50.60
2019-05-06T08:09:13.709Z,50.70
2019-05-06T08:11:44.088Z,50.40
2019-05-06T08:14:14.518Z,51.20
2019-05-06T08:16:53.265Z,49.30
2019-05-06T08:19:23.875Z,49.10
2019-05-06T08:21:55.868Z,48.40
2019-05-06T08:24:26.278Z,50.90
2019-05-06T08:26:56.657Z,48.40
2019-05-06T08:29:27.157Z,50.60
2019-05-06T08:31:57.606Z,50.20
2019-05-06T08:34:28.026Z,50.10
2019-05-06T08:37:00.050Z,49.90
2019-05-06T08:39:32.157Z,49.20
2019-05-06T08:42:02.783Z,51.20
2019-05-06T08:44:35.974Z,47.10
2019-05-06T08:47:06.433Z,49.40
2019-05-06T08:49:42.276Z,50.30
2019-05-06T08:52:14.381Z,49.50
2019-05-06T08:54:47.424Z,51.00
2019-05-06T08:57:17.795Z,49.10
2019-05-06T08:59:48.212Z,49.10
2019-05-06T09:02:19.887Z,51.10
2019-05-06T09:04:51.891Z,50.70
2019-05-06T09:07:24.009Z,49.50
2019-05-06T09:09:54.599Z,51.40
2019-05-06T09:12:25.021Z,49.40
2019-05-06T09:14:55.485Z,49.40
2019-05-06T09:17:25.863Z,47.80
2019-05-06T09:19:56.352Z,48.30
2019-05-06T09:22:26.749Z,47.60
2019-05-06T09:24:57.235Z,48.10
2019-05-06T09:27:42.200Z,47.70
2019-05-06T09:30:14.468Z,49.00
2019-05-06T09:32:46.350Z,48.50
2019-05-06T09:35:18.321Z,47.40
2019-05-06T09:37:49.655Z,42.00
2019-05-06T09:40:22.782Z,43.00
2019-05-06T09:42:55.040Z,42.10
2019-05-06T09:45:25.572Z,41.40
2019-05-06T09:48:08.814Z,40.40
2019-05-06T09:50:46.130Z,39.70
2019-05-06T09:53:18.831Z,39.60
2019-05-06T09:55:56.518Z,39.20
2019-05-06T09:58:27.029Z,38.10
2019-05-06T10:00:59.043Z,37.80
2019-05-06T10:03:31.890Z,37.60
2019-05-06T10:06:02.706Z,36.80
2019-05-06T10:08:33.372Z,36.40
2019-05-06T10:11:10.413Z,36.50
2019-05-06T10:13:44.450Z,36.20
2019-05-06T10:16:15.131Z,36.20
2019-05-06T10:18:45.715Z,36.00
2019-05-06T10:21:17.549Z,35.60
2019-05-06T10:23:47.942Z,36.20
2019-05-06T10:26:18.536Z,36.00
2019-05-06T10:28:52.299Z,36.00
2019-05-06T10:31:23.746Z,35.60
2019-05-06T10:34:05.243Z,35.90
2019-05-06T10:36:44.345Z,35.20
2019-05-06T10:39:16.749Z,35.20
2019-05-06T10:41:50.069Z,34.70
2019-05-06T10:44:23.429Z,35.20
2019-05-06T10:46:55.194Z,35.10
2019-05-06T10:49:25.626Z,35.40
2019-05-06T10:52:02.195Z,35.30
2019-05-06T10:54:32.813Z,34.80
2019-05-06T10:57:04.838Z,34.60
2019-05-06T10:59:35.272Z,34.60
2019-05-06T11:02:13.961Z,34.40
2019-05-06T11:04:44.518Z,34.10
2019-05-06T11:07:28.146Z,34.00
2019-05-06T11:09:49.293Z,33.20
2019-05-06T11:12:22.006Z,33.60
2019-05-06T11:14:53.248Z,32.30
2019-05-06T11:17:24.691Z,32.70
2019-05-06T11:19:55.101Z,32.50
2019-05-06T11:22:25.538Z,32.40
2019-05-06T11:24:55.971Z,32.30
2019-05-06T11:27:32.023Z,31.80
2019-05-06T11:30:02.285Z,31.80
2019-05-06T11:32:37.124Z,31.90
2019-05-06T11:35:12.342Z,30.50
2019-05-06T11:37:53.887Z,31.00
2019-05-06T11:40:23.463Z,30.70
2019-05-06T11:42:54.092Z,31.00
2019-05-06T11:45:24.560Z,30.80
2019-05-06T11:47:55.831Z,30.80
2019-05-06T11:50:26.855Z,30.30
2019-05-06T11:52:57.923Z,30.40
2019-05-06T11:55:33.828Z,30.60
2019-05-06T11:58:02.555Z,30.60
2019-05-06T12:00:35.843Z,30.70
2019-05-06T12:03:06.534Z,30.50
2019-05-06T12:05:38.271Z,30.70
2019-05-06T12:08:08.645Z,30.50
2019-05-06T12:10:39.129Z,30.10
2019-05-06T12:13:12.087Z,30.20
2019-05-06T12:15:41.652Z,30.20
2019-05-06T12:18:12.489Z,30.30
2019-05-06T12:20:43.159Z,30.20
2019-05-06T12:23:15.567Z,30.30
2019-05-06T12:25:46.236Z,31.00
2019-05-06T12:28:17.621Z,30.50
2019-05-06T12:30:48.241Z,30.00
2019-05-06T12:33:26.430Z,30.50
2019-05-06T12:35:58.398Z,30.90
2019-05-06T12:38:31.177Z,30.50
2019-05-06T12:41:03.340Z,30.90
2019-05-06T12:43:35.617Z,30.70
2019-05-06T12:46:07.587Z,30.60
2019-05-06T12:48:44.002Z,30.50
2019-05-06T12:51:14.868Z,30.90
2019-05-06T12:53:46.861Z,31.50
2019-05-06T12:56:18.745Z,32.30
2019-05-06T12:58:49.437Z,32.70
2019-05-06T13:01:19.936Z,33.50
2019-05-06T13:03:52.414Z,33.80
2019-05-06T13:06:26.398Z,34.00
2019-05-06T13:09:01.304Z,34.00
2019-05-06T13:11:27.951Z,34.20
2019-05-06T13:14:00.816Z,34.30
2019-05-06T13:16:33.202Z,34.20
2019-05-06T13:19:03.364Z,34.60
2019-05-06T13:21:34.238Z,34.60
2019-05-06T13:24:08.761Z,35.00
2019-05-06T13:26:39.419Z,35.10
2019-05-06T13:29:12.988Z,35.40
2019-05-06T13:31:45.229Z,35.70
2019-05-06T13:34:19.750Z,35.50
2019-05-06T13:36:53.008Z,35.70
2019-05-06T13:39:23.899Z,36.30
2019-05-06T13:41:54.447Z,36.40
2019-05-06T13:44:24.917Z,35.60
2019-05-06T13:46:56.774Z,35.50
2019-05-06T13:49:28.776Z,35.60
2019-05-06T13:52:03.915Z,35.70
2019-05-06T13:54:33.031Z,35.70
2019-05-06T13:57:03.780Z,35.70
2019-05-06T13:59:35.559Z,36.50
2019-05-06T14:02:08.392Z,35.90
2019-05-06T14:04:39.114Z,36.10
2019-05-06T14:07:13.054Z,35.90
2019-05-06T14:09:43.768Z,35.70
2019-05-06T14:12:14.346Z,35.50
2019-05-06T14:14:44.863Z,35.10
2019-05-06T14:17:15.350Z,35.00
2019-05-06T14:19:45.750Z,35.10
2019-05-06T14:22:16.252Z,34.90
2019-05-06T14:24:54.562Z,34.80
2019-05-06T14:27:26.507Z,34.80
2019-05-06T14:29:59.955Z,34.90
2019-05-06T14:32:32.367Z,34.90
2019-05-06T14:35:02.500Z,35.00
2019-05-06T14:37:33.323Z,35.20
2019-05-06T14:40:06.709Z,35.70
2019-05-06T14:42:37.083Z,35.90
2019-05-06T14:45:08.703Z,35.70
2019-05-06T14:47:42.326Z,35.60
2019-05-06T14:50:14.935Z,35.40
2019-05-06T14:52:45.612Z,35.60
2019-05-06T14:55:18.846Z,35.90
2019-05-06T14:57:49.262Z,36.00
2019-05-06T15:00:22.881Z,36.00
2019-05-06T15:02:53.275Z,35.80
2019-05-06T15:05:23.982Z,35.70
2019-05-06T15:07:55.875Z,35.60
2019-05-06T15:10:26.638Z,35.70
2019-05-06T15:12:57.194Z,35.70
2019-05-06T15:15:27.703Z,35.10
2019-05-06T15:17:58.064Z,35.40
2019-05-06T15:20:28.496Z,35.50
2019-05-06T15:22:59.232Z,35.60
2019-05-06T15:25:32.695Z,35.80
2019-05-06T15:28:03.277Z,35.90
2019-05-06T15:30:35.266Z,36.10
2019-05-06T15:33:07.233Z,35.80
2019-05-06T15:35:45.213Z,36.00
2019-05-06T15:38:21.975Z,36.00
2019-05-06T15:40:52.657Z,36.30
2019-05-06T15:43:24.723Z,36.30
2019-05-06T15:45:55.215Z,36.30
2019-05-06T15:48:25.584Z,36.40
2019-05-06T15:50:57.583Z,36.40
2019-05-06T15:53:28.034Z,36.60
2019-05-06T15:55:58.435Z,36.60
2019-05-06T15:58:28.814Z,36.80
2019-05-06T16:00:59.706Z,36.90
2019-05-06T16:03:33.429Z,36.90
2019-05-06T16:06:04.584Z,37.50
2019-05-06T16:08:34.983Z,36.80
2019-05-06T16:11:05.387Z,37.00
2019-05-06T16:13:35.846Z,36.90
2019-05-06T16:16:07.040Z,36.90
2019-05-06T16:18:37.797Z,36.90
2019-05-06T16:21:09.094Z,36.80
2019-05-06T16:23:50.236Z,37.50
2019-05-06T16:26:22.989Z,36.70
2019-05-06T16:28:53.542Z,36.90
2019-05-06T16:31:24.715Z,37.00
2019-05-06T16:33:57.477Z,37.00
2019-05-06T16:36:28.147Z,37.10
2019-05-06T16:38:58.593Z,37.20
2019-05-06T16:41:29.000Z,37.30
2019-05-06T16:44:02.177Z,37.40
2019-05-06T16:46:34.182Z,38.20
2019-05-06T16:49:04.932Z,37.80
2019-05-06T16:51:35.411Z,37.80
2019-05-06T16:54:07.411Z,37.90
2019-05-06T16:56:44.681Z,38.10
2019-05-06T16:59:15.210Z,38.10
2019-05-06T17:01:46.441Z,38.10
2019-05-06T17:04:27.496Z,38.20
2019-05-06T17:06:57.943Z,38.30
2019-05-06T17:09:28.385Z,38.50
2019-05-06T17:11:59.078Z,38.50
2019-05-06T17:14:29.532Z,38.70
2019-05-06T17:17:00.054Z,38.60
2019-05-06T17:19:32.421Z,38.80
2019-05-06T17:22:03.169Z,38.90
2019-05-06T17:24:35.112Z,39.20
2019-05-06T17:27:05.835Z,39.30
2019-05-06T17:29:37.826Z,39.50
2019-05-06T17:32:13.923Z,39.50
2019-05-06T17:34:57.486Z,39.70
2019-05-06T17:37:45.259Z,39.80
2019-05-06T17:40:17.619Z,39.80
2019-05-06T17:42:49.476Z,40.00
2019-05-06T17:45:37.734Z,40.10
2019-05-06T17:48:09.704Z,40.30
2019-05-06T17:50:42.017Z,40.40
2019-05-06T17:53:14.730Z,40.40
2019-05-06T17:55:46.620Z,40.60
2019-05-06T17:58:17.143Z,40.70
2019-05-06T18:00:49.196Z,40.70
2019-05-06T18:03:19.575Z,40.80
2019-05-06T18:05:49.995Z,40.90
2019-05-06T18:08:20.370Z,41.10
2019-05-06T18:10:52.136Z,41.20
2019-05-06T18:13:22.748Z,41.30
2019-05-06T18:15:53.216Z,41.30
2019-05-06T18:18:28.415Z,41.50
2019-05-06T18:20:55.790Z,41.40
2019-05-06T18:23:26.295Z,41.50
2019-05-06T18:25:56.752Z,41.70
2019-05-06T18:28:27.146Z,41.80
2019-05-06T18:30:57.543Z,41.80
2019-05-06T18:33:29.499Z,41.80
2019-05-06T18:35:59.881Z,41.70
2019-05-06T18:38:32.929Z,41.80
2019-05-06T18:41:03.883Z,41.80
2019-05-06T18:43:34.388Z,41.60
2019-05-06T18:46:06.245Z,41.50
2019-05-06T18:48:36.730Z,41.70
2019-05-06T18:51:07.170Z,41.50
2019-05-06T18:53:38.518Z,41.50
2019-05-06T18:56:09.181Z,41.50
2019-05-06T18:58:39.754Z,41.40
2019-05-06T19:01:10.340Z,41.60
2019-05-06T19:03:43.032Z,41.70
2019-05-06T19:06:13.804Z,41.70
2019-05-06T19:08:45.802Z,41.50
2019-05-06T19:11:17.515Z,41.50
2019-05-06T19:13:47.958Z,41.50
2019-05-06T19:16:18.339Z,41.50
2019-05-06T19:18:52.174Z,41.60
2019-05-06T19:21:24.450Z,41.60
2019-05-06T19:23:54.923Z,41.70
2019-05-06T19:26:27.070Z,41.60
2019-05-06T19:28:57.761Z,41.50
2019-05-06T19:31:28.229Z,41.30
2019-05-06T19:33:58.700Z,41.30
2019-05-06T19:36:29.249Z,41.20
2019-05-06T19:38:59.614Z,41.00
2019-05-06T19:41:30.067Z,40.90
2019-05-06T19:44:02.117Z,40.80
2019-05-06T19:46:33.106Z,40.80
2019-05-06T19:49:04.783Z,40.50
2019-05-06T19:51:35.255Z,40.60
2019-05-06T19:54:06.707Z,40.80
2019-05-06T19:56:37.128Z,40.80
2019-05-06T19:59:07.630Z,40.90
2019-05-06T20:01:38.007Z,41.10
2019-05-06T20:04:08.449Z,41.00
2019-05-06T20:06:40.401Z,41.20
2019-05-06T20:09:19.104Z,41.30
2019-05-06T20:11:51.945Z,41.50
2019-05-06T20:14:22.436Z,41.50
2019-05-06T20:16:52.991Z,41.70
2019-05-06T20:19:30.850Z,41.60
2019-05-06T20:21:55.720Z,41.60
2019-05-06T20:24:26.107Z,41.70
2019-05-06T20:26:56.491Z,41.70
2019-05-06T20:29:26.917Z,41.90
2019-05-06T20:31:57.333Z,42.00
2019-05-06T20:34:27.743Z,42.20
2019-05-06T20:36:58.140Z,42.90
2019-05-06T20:39:28.696Z,42.50
2019-05-06T20:41:59.303Z,42.50
2019-05-06T20:44:29.764Z,42.50
2019-05-06T20:47:03.029Z,42.50
2019-05-06T20:49:34.758Z,42.40
2019-05-06T20:52:05.135Z,42.50
2019-05-06T20:54:35.690Z,42.60
2019-05-06T20:57:06.069Z,43.30
2019-05-06T20:59:36.538Z,42.50
2019-05-06T21:02:07.072Z,42.50
2019-05-06T21:04:37.436Z,42.40
2019-05-06T21:07:07.906Z,42.10
2019-05-06T21:09:38.301Z,42.10
2019-05-06T21:12:08.815Z,42.10
2019-05-06T21:14:39.254Z,42.10
2019-05-06T21:17:12.115Z,42.00
2019-05-06T21:19:41.734Z,41.80
2019-05-06T21:22:13.534Z,41.70
2019-05-06T21:24:44.104Z,41.70
2019-05-06T21:27:14.637Z,41.70
2019-05-06T21:29:46.586Z,41.90
2019-05-06T21:32:17.001Z,42.00
2019-05-06T21:34:47.386Z,42.20
2019-05-06T21:37:18.613Z,42.40
2019-05-06T21:39:48.998Z,42.40
2019-05-06T21:42:19.445Z,42.60
2019-05-06T21:44:52.152Z,42.70
2019-05-06T21:47:22.232Z,42.70
2019-05-06T21:49:52.893Z,42.80
2019-05-06T21:52:36.252Z,42.90
2019-05-06T21:54:57.353Z,43.20
2019-05-06T21:57:27.798Z,43.30
2019-05-06T21:59:58.327Z,43.40
2019-05-06T22:02:28.845Z,43.60
2019-05-06T22:05:02.782Z,43.60
2019-05-06T22:07:35.730Z,43.60
2019-05-06T22:10:08.773Z,43.70
2019-05-06T22:12:39.314Z,43.90
2019-05-06T22:15:11.748Z,43.90
2019-05-06T22:17:42.909Z,44.10
2019-05-06T22:20:14.874Z,44.20
2019-05-06T22:22:45.778Z,44.30
2019-05-06T22:25:16.383Z,44.30
2019-05-06T22:27:48.266Z,44.30
2019-05-06T22:30:18.859Z,44.40
2019-05-06T22:32:49.337Z,44.40
2019-05-06T22:35:19.715Z,44.50
2019-05-06T22:37:52.740Z,44.50
2019-05-06T22:40:23.884Z,44.50
2019-05-06T22:42:54.324Z,44.50
2019-05-06T22:45:26.266Z,44.60
2019-05-06T22:47:56.836Z,44.60
2019-05-06T22:50:28.952Z,44.40
2019-05-06T22:52:59.329Z,44.30
2019-05-06T22:55:29.825Z,44.20
2019-05-06T22:58:02.407Z,44.10
2019-05-06T23:00:33.850Z,44.00
2019-05-06T23:03:07.302Z,43.80
2019-05-06T23:05:37.844Z,43.80
2019-05-06T23:08:08.537Z,43.80
2019-05-06T23:10:38.959Z,43.70
2019-05-06T23:13:09.411Z,43.80
2019-05-06T23:15:41.897Z,44.00
2019-05-06T23:18:11.923Z,44.30
2019-05-06T23:20:43.098Z,44.60
2019-05-06T23:23:13.996Z,45.10
2019-05-06T23:25:46.210Z,45.50
2019-05-06T23:28:18.077Z,45.80
2019-05-06T23:30:52.362Z,46.20
2019-05-06T23:33:24.338Z,46.30
2019-05-06T23:35:54.777Z,46.60
2019-05-06T23:39:02.003Z,46.70
2019-05-06T23:42:09.033Z,46.80
2019-05-06T23:45:16.028Z,47.00
2019-05-06T23:48:23.208Z,47.40
2019-05-06T23:51:29.244Z,47.70
2019-05-06T23:54:36.231Z,48.00
2019-05-06T23:57:05.458Z,48.20
2019-05-06T23:59:35.843Z,48.50
